Time;durP1;ratioP1;P1;durP2;ratioP2;P2;SDS_P1;SDS_P2;PMS_P1;PMS_P2;Temp;Humidity;BMP_temperature;BMP_pressure;BME280_temperature;BME280_humidity;BME280_pressure;Samples;Min_cycle;Max_cycle;Signal;HPM_P1;HPM_P2
2022/12/19 00:01:01;;;;;;;38.57;19.60;;;;;;;3.02;54.22;99771.44;7117218;27;20313;-82
2022/12/19 00:04:24;;;;;;;37.53;20.23;;;;;;;2.89;55.65;99776.97;7117177;27;20293;-82
2022/12/19 00:07:48;;;;;;;37.90;21.57;;;;;;;3.05;54.27;99740.03;7115018;27;20234;-83
2022/12/19 00:11:10;;;;;;;42.20;20.47;;;;;;;3.14;53.47;99784.50;7115345;27;20223;-82
2022/12/19 00:14:32;;;;;;;38.53;19.90;;;;;;;2.96;54.42;99766.66;7110364;27;20223;-82
2022/12/19 00:17:53;;;;;;;29.90;19.93;;;;;;;3.34;53.31;99766.75;7114946;27;20214;-82
2022/12/19 00:21:18;;;;;;;42.17;20.20;;;;;;;3.46;52.93;99792.31;7115153;27;20293;-82
2022/12/19 00:24:39;;;;;;;39.00;19.80;;;;;;;3.36;52.80;99810.97;7114273;27;20228;-82
2022/12/19 00:28:03;;;;;;;34.67;18.00;;;;;;;3.65;51.73;99806.53;7112919;27;20242;-82
2022/12/19 00:31:26;;;;;;;40.07;20.23;;;;;;;3.33;52.15;99781.06;7113571;27;20253;-82
2022/12/19 00:34:48;;;;;;;42.13;20.87;;;;;;;2.93;53.90;99810.38;7113721;27;20362;-82
2022/12/19 00:38:11;;;;;;;39.47;21.00;;;;;;;3.57;53.26;99802.88;7114602;27;20210;-81
2022/12/19 00:41:34;;;;;;;40.97;21.57;;;;;;;3.64;52.19;99786.19;7115409;27;20331;-81
2022/12/19 00:44:56;;;;;;;35.90;18.63;;;;;;;3.86;51.71;99780.63;7114176;27;20266;-81
2022/12/19 00:48:18;;;;;;;39.97;20.70;;;;;;;3.76;51.98;99781.56;7115917;27;20595;-83
2022/12/19 00:51:40;;;;;;;34.87;20.43;;;;;;;3.52;52.70;99775.78;7122947;27;20340;-80
2022/12/19 00:55:06;;;;;;;35.13;18.87;;;;;;;3.32;53.50;99774.06;7123595;27;20226;-81
2022/12/19 00:58:27;;;;;;;38.43;19.77;;;;;;;3.37;53.63;99756.66;7124035;27;20719;-80
2022/12/19 01:01:49;;;;;;;33.70;18.43;;;;;;;3.38;53.63;99758.38;7124188;27;20195;-80
2022/12/19 01:05:11;;;;;;;32.13;17.63;;;;;;;3.40;53.48;99756.41;7127376;27;20211;-80
2022/12/19 01:08:33;;;;;;;33.00;17.93;;;;;;;3.64;52.76;99745.34;7134706;27;20215;-79
2022/12/19 01:15:42;;;;;;;32.67;18.87;;;;;;;3.55;53.12;99743.53;7115956;27;20665;-79
2022/12/19 01:19:04;;;;;;;34.60;19.27;;;;;;;3.47;53.17;99714.88;7094726;27;20236;-80
2022/12/19 01:22:26;;;;;;;36.60;19.07;;;;;;;3.55;52.93;99704.38;7094461;27;20567;-80
2022/12/19 01:25:49;;;;;;;31.60;17.53;;;;;;;3.92;52.59;99720.50;7095068;27;20221;-80
2022/12/19 01:29:15;;;;;;;34.97;18.63;;;;;;;3.63;52.74;99679.69;7093382;27;20364;-80
2022/12/19 01:32:37;;;;;;;35.93;19.53;;;;;;;4.06;52.61;99734.28;7094830;27;20223;-79
2022/12/19 01:36:06;;;;;;;36.40;19.53;;;;;;;4.00;52.33;99724.16;7094002;27;20206;-80
2022/12/19 01:39:31;;;;;;;37.60;19.43;;;;;;;4.20;51.98;99728.50;7095182;27;20731;-80
2022/12/19 01:42:52;;;;;;;41.83;20.43;;;;;;;3.93;52.93;99715.06;7091102;27;20657;-82
2022/12/19 01:46:15;;;;;;;42.73;21.93;;;;;;;3.59;54.07;99735.09;7090642;27;20286;-81
2022/12/19 01:49:37;;;;;;;40.83;20.17;;;;;;;3.74;53.39;99743.53;7090164;27;20691;-81
2022/12/19 01:52:59;;;;;;;40.63;20.33;;;;;;;3.94;53.18;99724.72;7088637;27;20223;-80
2022/12/19 01:56:23;;;;;;;37.57;20.07;;;;;;;4.06;52.96;99664.03;7088364;27;20203;-82
2022/12/19 01:59:48;;;;;;;36.43;18.30;;;;;;;4.46;52.02;99688.66;7089174;27;20219;-82
2022/12/19 02:03:15;;;;;;;38.27;20.70;;;;;;;4.39;52.62;99682.25;7089942;27;20341;-82
2022/12/19 02:06:38;;;;;;;37.70;19.63;;;;;;;4.44;52.72;99677.31;7089854;27;20293;-82
2022/12/19 02:10:00;;;;;;;37.07;19.03;;;;;;;4.38;52.73;99660.06;7089778;27;20236;-81
2022/12/19 02:13:23;;;;;;;35.87;19.67;;;;;;;4.52;52.92;99680.09;7090063;27;20284;-82
2022/12/19 02:16:48;;;;;;;33.40;19.20;;;;;;;4.55;52.92;99656.59;7113841;27;20255;-82
2022/12/19 02:20:28;;;;;;;38.53;20.37;;;;;;;4.82;52.01;99675.31;7118496;27;21071;-82
2022/12/19 02:24:17;;;;;;;38.83;20.30;;;;;;;4.75;52.37;99676.06;7118257;27;20266;-81
2022/12/19 02:27:59;;;;;;;45.70;20.67;;;;;;;4.85;52.13;99666.19;7093577;27;20687;-82
2022/12/19 02:31:25;;;;;;;31.53;18.13;;;;;;;4.97;51.64;99673.84;7088502;27;20239;-82
2022/12/19 02:34:52;;;;;;;37.53;20.50;;;;;;;4.77;51.83;99684.78;7095182;27;20223;-81
2022/12/19 02:38:19;;;;;;;36.13;20.97;;;;;;;4.88;52.09;99689.91;7095901;27;20356;-81
2022/12/19 02:41:44;;;;;;;38.23;19.63;;;;;;;4.98;51.65;99680.03;7088203;27;20423;-80
2022/12/19 02:45:08;;;;;;;39.47;21.07;;;;;;;4.85;51.61;99677.69;7091280;27;20214;-79
2022/12/19 02:48:31;;;;;;;34.90;18.67;;;;;;;4.72;51.91;99674.53;7090998;27;20253;-80
2022/12/19 02:51:53;;;;;;;38.03;20.73;;;;;;;4.66;52.49;99671.63;7090897;27;20235;-80
2022/12/19 02:55:20;;;;;;;40.13;21.00;;;;;;;4.87;52.49;99688.22;7090806;27;20537;-79
2022/12/19 02:59:00;;;;;;;37.97;21.00;;;;;;;4.98;51.48;99682.69;7092643;27;20220;-80
2022/12/19 03:02:27;;;;;;;39.77;20.93;;;;;;;5.04;51.35;99642.88;7099843;27;20208;-80
2022/12/19 03:05:56;;;;;;;40.83;19.97;;;;;;;4.84;52.09;99685.88;7095240;27;20260;-79
2022/12/19 03:09:26;;;;;;;40.07;20.63;;;;;;;4.91;52.25;99662.91;7091111;27;20251;-80
2022/12/19 03:12:51;;;;;;;40.67;20.33;;;;;;;4.88;52.40;99676.56;7114236;27;20202;-80
2022/12/19 03:16:13;;;;;;;40.63;20.80;;;;;;;5.16;51.76;99676.41;7118135;27;20339;-80
2022/12/19 03:19:35;;;;;;;43.47;20.70;;;;;;;5.11;51.93;99659.97;7118066;27;20235;-80
2022/12/19 03:22:58;;;;;;;41.10;21.17;;;;;;;4.93;52.48;99616.34;7117600;27;20262;-80
2022/12/19 03:26:20;;;;;;;37.00;19.90;;;;;;;4.63;53.11;99643.38;7105681;27;20225;-80
2022/12/19 03:29:45;;;;;;;38.40;20.43;;;;;;;4.92;53.05;99672.59;7087974;27;20380;-81
2022/12/19 03:33:08;;;;;;;40.87;21.07;;;;;;;4.93;52.55;99629.72;7088193;27;20286;-80
2022/12/19 03:36:33;;;;;;;37.40;20.33;;;;;;;5.02;52.65;99686.75;7088218;27;20210;-79
2022/12/19 03:40:02;;;;;;;35.40;19.50;;;;;;;5.06;52.77;99672.94;7088165;27;20310;-80
2022/12/19 03:43:24;;;;;;;37.90;18.93;;;;;;;5.32;51.55;99659.72;7088699;27;20661;-80
2022/12/19 03:46:51;;;;;;;39.23;18.50;;;;;;;5.51;51.15;99699.69;7088386;27;20350;-80
2022/12/19 03:50:13;;;;;;;34.97;19.17;;;;;;;4.65;52.47;99611.19;7089434;27;20315;-80
2022/12/19 03:53:44;;;;;;;39.00;19.73;;;;;;;4.69;52.83;99652.59;7089211;27;20707;-80
2022/12/19 03:57:09;;;;;;;35.87;19.90;;;;;;;5.31;52.51;99677.56;7088766;27;20740;-80
2022/12/19 04:00:33;;;;;;;33.70;18.57;;;;;;;5.38;52.13;99686.69;7089471;27;20296;-80
2022/12/19 04:03:55;;;;;;;37.37;18.97;;;;;;;4.99;52.89;99674.53;7089805;27;20211;-80
2022/12/19 04:07:17;;;;;;;38.83;19.53;;;;;;;5.39;52.36;99680.34;7099373;27;20234;-81
2022/12/19 04:10:43;;;;;;;39.63;20.07;;;;;;;4.91;52.89;99685.13;7099697;27;20243;-80
2022/12/19 04:14:08;;;;;;;40.10;19.80;;;;;;;5.41;52.09;99685.53;7117287;27;20672;-79
2022/12/19 04:17:34;;;;;;;39.07;19.20;;;;;;;4.84;52.39;99684.03;7117240;27;20286;-79
2022/12/19 04:21:00;;;;;;;37.43;18.80;;;;;;;4.43;54.21;99695.16;7117485;27;20242;-79
2022/12/19 04:24:26;;;;;;;36.00;19.30;;;;;;;4.83;53.71;99695.69;7117958;27;20283;-79
2022/12/19 04:27:51;;;;;;;40.67;20.47;;;;;;;5.12;52.76;99695.59;7120846;27;20219;-79
2022/12/19 04:31:15;;;;;;;39.63;19.87;;;;;;;5.05;53.64;99702.47;7122838;27;20315;-79
2022/12/19 04:34:37;;;;;;;37.70;19.50;;;;;;;4.99;52.82;99693.25;7123574;27;20227;-79
2022/12/19 04:37:58;;;;;;;42.30;20.47;;;;;;;4.73;54.78;99705.56;7122999;27;20796;-79
2022/12/19 04:41:20;;;;;;;41.10;21.43;;;;;;;4.81;54.13;99680.81;7121983;27;20271;-79
2022/12/19 04:44:41;;;;;;;40.30;20.87;;;;;;;5.03;53.80;99717.84;7122733;27;20688;-82
2022/12/19 04:48:05;;;;;;;33.27;19.43;;;;;;;5.26;53.63;99705.75;7120818;27;20271;-81
2022/12/19 04:51:26;;;;;;;41.53;22.13;;;;;;;5.27;53.42;99689.56;7121638;27;20297;-79
2022/12/19 04:54:48;;;;;;;41.20;21.27;;;;;;;4.90;54.89;99695.97;7122078;27;20254;-80
2022/12/19 04:58:09;;;;;;;38.20;20.97;;;;;;;5.19;54.00;99702.00;7122019;27;20297;-79
2022/12/19 05:01:31;;;;;;;39.83;20.67;;;;;;;5.63;53.50;99719.84;7122279;27;20227;-79
2022/12/19 05:04:54;;;;;;;36.57;19.80;;;;;;;5.68;52.92;99697.03;7120781;27;20333;-80
2022/12/19 05:08:15;;;;;;;32.77;19.27;;;;;;;5.58;52.81;99680.19;7121179;27;20228;-79
2022/12/19 05:11:37;;;;;;;37.77;19.30;;;;;;;5.66;52.92;99693.66;7120356;27;20841;-79
2022/12/19 05:14:58;;;;;;;45.63;22.20;;;;;;;5.61;52.86;99646.97;7120700;27;20311;-80
2022/12/19 05:18:20;;;;;;;34.13;19.13;;;;;;;5.56;53.25;99679.53;7120545;27;20262;-79
2022/12/19 05:21:44;;;;;;;34.90;19.77;;;;;;;5.79;53.02;99678.03;7120822;27;20227;-79
2022/12/19 05:25:07;;;;;;;36.73;19.80;;;;;;;5.75;52.82;99662.47;7120742;27;20199;-79
2022/12/19 05:28:28;;;;;;;35.00;19.37;;;;;;;4.84;54.80;99657.31;7093874;27;20235;-79
2022/12/19 05:31:50;;;;;;;36.30;18.03;;;;;;;5.14;55.14;99658.84;7092537;27;20290;-79
2022/12/19 05:35:11;;;;;;;32.80;17.90;;;;;;;5.52;54.48;99654.06;7090114;27;20286;-79
2022/12/19 05:38:34;;;;;;;36.47;18.63;;;;;;;5.34;54.93;99663.91;7104571;27;20222;-80
2022/12/19 05:41:56;;;;;;;31.43;17.63;;;;;;;5.60;54.88;99647.97;7120001;27;20239;-79
2022/12/19 05:45:18;;;;;;;35.93;18.67;;;;;;;5.86;53.93;99655.06;7119270;27;20199;-80
2022/12/19 05:48:39;;;;;;;34.57;16.83;;;;;;;6.37;52.69;99649.75;7122837;27;20218;-80
2022/12/19 05:52:01;;;;;;;35.80;18.87;;;;;;;6.61;52.02;99649.06;7113678;27;20268;-80
2022/12/19 05:55:24;;;;;;;36.07;19.70;;;;;;;5.84;53.42;99621.44;7099976;27;20310;-80
2022/12/19 05:58:46;;;;;;;37.90;18.73;;;;;;;6.18;53.62;99647.28;7091554;27;20220;-79
2022/12/19 06:02:07;;;;;;;33.83;17.93;;;;;;;6.08;53.61;99603.69;7091335;27;20284;-80
2022/12/19 06:05:31;;;;;;;32.37;17.47;;;;;;;5.51;54.72;99580.19;7089255;27;20829;-79
2022/12/19 06:08:53;;;;;;;38.13;18.73;;;;;;;5.53;55.98;99623.66;7097146;27;20636;-80
2022/12/19 06:12:16;;;;;;;37.37;19.77;;;;;;;5.63;56.09;99636.94;7117946;27;20206;-80
2022/12/19 06:15:38;;;;;;;38.77;19.60;;;;;;;4.79;58.28;99610.66;7094512;27;20380;-79
2022/12/19 06:18:59;;;;;;;38.13;19.40;;;;;;;5.49;57.70;99635.63;7089718;27;20251;-79
2022/12/19 06:22:21;;;;;;;34.20;18.17;;;;;;;6.34;54.84;99601.88;7088831;27;20257;-79
2022/12/19 06:25:42;;;;;;;32.00;19.07;;;;;;;6.43;54.61;99610.78;7088468;27;20204;-79
2022/12/19 06:29:05;;;;;;;32.20;16.50;;;;;;;6.54;54.44;99619.38;7088081;27;20318;-79
2022/12/19 06:32:26;;;;;;;28.47;16.10;;;;;;;6.48;54.05;99620.00;7088701;27;20232;-80
2022/12/19 06:35:48;;;;;;;29.10;16.07;;;;;;;6.87;53.39;99604.28;7086815;27;20224;-80
2022/12/19 06:39:12;;;;;;;31.70;16.57;;;;;;;6.81;52.64;99589.69;7086147;27;20316;-80
2022/12/19 06:42:34;;;;;;;33.17;18.40;;;;;;;7.07;52.93;99616.41;7086347;27;20680;-80
2022/12/19 06:45:58;;;;;;;32.37;17.77;;;;;;;6.84;52.90;99609.97;7111232;27;20348;-81
2022/12/19 06:49:20;;;;;;;31.10;16.97;;;;;;;6.62;53.79;99599.81;7114322;27;20219;-80
2022/12/19 06:52:41;;;;;;;28.70;15.47;;;;;;;6.18;54.57;99584.88;7114831;27;20255;-80
2022/12/19 06:56:03;;;;;;;28.27;15.73;;;;;;;6.95;54.33;99607.00;7088247;27;20318;-78
2022/12/19 06:59:28;;;;;;;29.17;17.60;;;;;;;7.12;55.63;99614.06;7088614;27;20227;-85
2022/12/19 07:02:51;;;;;;;34.97;18.07;;;;;;;7.42;53.87;99595.50;7090182;27;20225;-83
2022/12/19 07:06:19;;;;;;;35.67;18.43;;;;;;;7.27;52.65;99556.09;7090320;27;20205;-85
2022/12/19 07:09:41;;;;;;;33.53;19.80;;;;;;;7.05;53.55;99596.94;7103572;27;20226;-85
2022/12/19 07:13:03;;;;;;;39.00;21.83;;;;;;;6.44;54.76;99541.00;7124453;27;20210;-85
2022/12/19 07:16:25;;;;;;;41.30;20.47;;;;;;;6.65;55.43;99603.00;7089791;27;20273;-79
2022/12/19 07:19:50;;;;;;;42.40;21.53;;;;;;;6.75;56.00;99613.59;7088188;27;20247;-79
2022/12/19 07:23:14;;;;;;;40.97;21.27;;;;;;;6.75;56.11;99602.88;7087378;27;20200;-80
2022/12/19 07:26:36;;;;;;;41.63;23.30;;;;;;;6.66;56.49;99606.53;7086279;27;20231;-79
2022/12/19 07:29:57;;;;;;;46.97;23.47;;;;;;;6.31;57.11;99620.91;7086715;27;20251;-79
2022/12/19 07:33:19;;;;;;;47.20;26.10;;;;;;;6.22;58.07;99607.63;7086847;27;20786;-78
2022/12/19 07:36:42;;;;;;;47.63;23.97;;;;;;;6.66;56.81;99614.59;7085060;27;20232;-78
2022/12/19 07:40:04;;;;;;;41.57;21.80;;;;;;;7.02;55.07;99583.88;7088934;27;20309;-77
2022/12/19 07:43:26;;;;;;;41.97;21.83;;;;;;;6.43;55.83;99535.78;7088455;27;20206;-77
2022/12/19 07:46:47;;;;;;;41.23;22.23;;;;;;;6.96;56.38;99622.06;7104590;27;20657;-77
2022/12/19 07:50:09;;;;;;;40.00;22.67;;;;;;;6.69;56.75;99612.41;7108757;27;20307;-77
2022/12/19 07:53:32;;;;;;;46.97;22.70;;;;;;;6.83;56.95;99605.63;7113879;27;20319;-77
2022/12/19 07:56:53;;;;;;;46.90;23.20;;;;;;;7.21;56.27;99616.63;7113560;27;20226;-77
2022/12/19 08:00:15;;;;;;;44.17;23.77;;;;;;;7.09;56.26;99627.81;7118162;27;20321;-77
2022/12/19 08:03:37;;;;;;;43.17;22.60;;;;;;;7.25;55.90;99617.94;7119346;27;20682;-77
2022/12/19 08:06:58;;;;;;;40.57;21.03;;;;;;;7.18;55.92;99618.78;7112068;27;20271;-77
2022/12/19 08:10:22;;;;;;;44.77;22.93;;;;;;;7.04;56.66;99608.69;7119016;27;20758;-77
2022/12/19 08:13:43;;;;;;;39.83;20.63;;;;;;;6.98;56.53;99607.50;7095270;27;20206;-77
2022/12/19 08:17:05;;;;;;;42.63;21.87;;;;;;;6.71;58.38;99628.34;7121394;27;20282;-79
2022/12/19 08:20:27;;;;;;;38.67;20.27;;;;;;;7.08;57.43;99618.91;7121244;27;20310;-79
2022/12/19 08:23:48;;;;;;;34.43;19.33;;;;;;;7.39;56.52;99625.38;7123703;27;20287;-80
2022/12/19 08:27:11;;;;;;;32.70;19.27;;;;;;;7.64;55.97;99640.50;7127094;27;20227;-81
2022/12/19 08:30:33;;;;;;;34.73;19.50;;;;;;;7.51;56.25;99642.84;7138729;27;20283;-79
2022/12/19 08:33:56;;;;;;;31.07;17.00;;;;;;;8.03;55.35;99637.97;7124139;27;20702;-79
2022/12/19 08:37:18;;;;;;;48.13;25.67;;;;;;;7.74;55.29;99641.19;7123796;27;20314;-79
2022/12/19 08:40:39;;;;;;;43.90;23.37;;;;;;;7.80;55.99;99637.81;7122829;27;20702;-79
2022/12/19 08:44:02;;;;;;;37.80;22.23;;;;;;;7.62;56.07;99641.66;7123085;27;20292;-81
2022/12/19 08:47:24;;;;;;;40.23;22.50;;;;;;;7.35;56.62;99632.06;7122417;27;20275;-80
2022/12/19 08:50:52;;;;;;;37.80;21.60;;;;;;;6.90;58.43;99636.94;7123978;27;20728;-79
2022/12/19 08:54:14;;;;;;;36.37;20.97;;;;;;;7.84;56.39;99647.19;7124939;27;20229;-80
2022/12/19 08:57:35;;;;;;;41.80;23.20;;;;;;;7.89;55.36;99614.50;7122657;27;20205;-79
2022/12/19 09:01:00;;;;;;;31.37;19.93;;;;;;;7.79;56.72;99613.81;7121664;27;20235;-79
2022/12/19 09:04:22;;;;;;;34.20;19.60;;;;;;;7.76;55.92;99625.75;7122269;27;20208;-80
2022/12/19 09:07:45;;;;;;;32.30;18.27;;;;;;;8.31;54.68;99607.91;7122200;27;20221;-80
2022/12/19 09:11:09;;;;;;;35.07;19.63;;;;;;;8.40;54.74;99614.09;7122153;27;20224;-80
2022/12/19 09:14:33;;;;;;;29.27;17.33;;;;;;;8.39;54.48;99582.88;7122851;27;20315;-79
2022/12/19 09:17:56;;;;;;;22.70;14.13;;;;;;;8.86;52.86;99599.84;7119444;27;20219;-78
2022/12/19 09:21:18;;;;;;;23.87;14.27;;;;;;;8.66;52.89;99598.59;7120389;27;20319;-79
2022/12/19 09:24:40;;;;;;;19.93;12.90;;;;;;;8.79;53.01;99615.00;7120201;27;20341;-77
2022/12/19 09:28:02;;;;;;;21.43;13.40;;;;;;;8.49;53.63;99588.91;7120203;27;20231;-79
2022/12/19 09:31:25;;;;;;;21.80;14.10;;;;;;;8.70;52.52;99557.75;7118448;27;20231;-79
2022/12/19 09:34:47;;;;;;;22.13;14.10;;;;;;;8.83;52.88;99597.53;7120288;27;20311;-79
2022/12/19 09:38:09;;;;;;;25.93;13.87;;;;;;;8.87;52.93;99598.81;7120937;27;20287;-78
2022/12/19 09:41:51;;;;;;;21.60;13.73;;;;;;;8.92;52.69;99591.06;7117887;27;20674;-77
2022/12/19 09:45:24;;;;;;;22.30;14.03;;;;;;;8.82;52.39;99575.16;7117623;27;20214;-78
2022/12/19 09:48:47;;;;;;;21.70;13.43;;;;;;;8.58;53.42;99574.41;7118192;27;20232;-79
2022/12/19 09:52:14;;;;;;;21.87;12.60;;;;;;;8.30;53.43;99511.41;7120780;27;20686;-79
2022/12/19 09:55:38;;;;;;;23.20;14.03;;;;;;;8.91;52.22;99563.34;7120606;27;20241;-80
2022/12/19 09:59:04;;;;;;;19.00;12.87;;;;;;;9.01;51.97;99558.59;7120845;27;20217;-80
2022/12/19 10:02:34;;;;;;;22.43;13.77;;;;;;;9.32;51.23;99564.75;7121195;27;20292;-79
2022/12/19 10:05:57;;;;;;;22.40;13.30;;;;;;;9.35;51.19;99572.50;7126027;27;20202;-80
2022/12/19 10:09:21;;;;;;;19.30;12.70;;;;;;;9.56;50.60;99573.50;7136624;27;20234;-80
2022/12/19 10:12:53;;;;;;;22.33;13.97;;;;;;;9.70;50.64;99566.50;7138197;27;20215;-80
2022/12/19 10:16:20;;;;;;;22.13;13.93;;;;;;;9.91;50.49;99567.50;7137841;27;20263;-80
2022/12/19 10:19:47;;;;;;;21.87;13.80;;;;;;;9.77;50.68;99571.00;7121231;27;20230;-79
2022/12/19 10:23:35;;;;;;;20.03;12.27;;;;;;;9.84;50.81;99571.94;7122757;27;20258;-82
2022/12/19 10:27:00;;;;;;;19.87;12.77;;;;;;;9.86;51.44;99558.28;7093280;27;20218;-79
2022/12/19 10:30:23;;;;;;;18.33;12.40;;;;;;;10.00;50.97;99552.09;7091823;27;20258;-81
2022/12/19 10:33:47;;;;;;;23.03;13.97;;;;;;;9.77;51.04;99560.22;7100859;27;20200;-81
2022/12/19 10:37:14;;;;;;;20.73;12.90;;;;;;;10.25;49.79;99556.22;7122336;27;20226;-80
2022/12/19 10:40:40;;;;;;;20.50;12.77;;;;;;;10.48;49.23;99554.28;7123068;27;20321;-80
2022/12/19 10:44:06;;;;;;;18.00;13.37;;;;;;;10.59;48.19;99491.81;7118006;27;20192;-81
2022/12/19 10:47:27;;;;;;;21.17;13.60;;;;;;;10.50;48.46;99509.94;7113617;27;20206;-83
2022/12/19 10:50:49;;;;;;;19.40;12.77;;;;;;;10.86;48.08;99527.00;7129554;27;20230;-82
2022/12/19 10:54:11;;;;;;;19.27;12.03;;;;;;;10.70;47.99;99527.19;7124606;27;20207;-85
2022/12/19 10:57:32;;;;;;;19.97;11.70;;;;;;;10.68;48.84;99529.25;7124185;27;20265;-84
2022/12/19 11:01:15;;;;;;;22.83;13.43;;;;;;;10.94;47.94;99517.97;7128476;27;20254;-85
2022/12/19 11:04:37;;;;;;;17.33;12.07;;;;;;;10.84;47.73;99517.41;7126868;27;20286;-85
2022/12/19 11:08:04;;;;;;;19.43;11.93;;;;;;;10.24;48.87;99481.78;7124685;27;20211;-87
2022/12/19 11:11:34;;;;;;;18.50;11.83;;;;;;;9.72;50.80;99516.84;7122366;27;20222;-86
2022/12/19 11:15:13;;;;;;;17.07;10.87;;;;;;;10.41;49.30;99477.88;7111343;27;20294;-85
2022/12/19 11:22:22;;;;;;;20.53;12.80;;;;;;;10.68;48.74;99488.00;7109182;27;20255;-86
2022/12/19 11:25:43;;;;;;;17.57;11.70;;;;;;;11.05;48.36;99509.38;7102970;27;20245;-85
2022/12/19 11:29:18;;;;;;;16.40;11.33;;;;;;;10.79;48.39;99495.56;7098214;27;20594;-87
2022/12/19 11:32:41;;;;;;;14.40;10.50;;;;;;;10.73;48.16;99470.19;7100865;27;20266;-85
2022/12/19 11:36:11;;;;;;;22.13;11.83;;;;;;;10.49;48.32;99426.53;7100059;27;20228;-85
2022/12/19 11:39:39;;;;;;;18.20;10.97;;;;;;;10.89;48.25;99471.81;7110296;27;20221;-84
2022/12/19 11:43:07;;;;;;;15.30;10.87;;;;;;;10.68;47.86;99410.59;7128783;27;20208;-86
2022/12/19 11:46:38;;;;;;;18.07;11.87;;;;;;;10.88;47.78;99472.84;7128353;27;20205;-85
2022/12/19 11:50:04;;;;;;;18.60;11.93;;;;;;;10.20;48.44;99378.94;7128959;27;20226;-86
2022/12/19 11:53:29;;;;;;;19.10;13.03;;;;;;;10.71;48.01;99414.78;7127954;27;20198;-86
2022/12/19 11:56:51;;;;;;;18.73;12.43;;;;;;;10.70;48.60;99438.19;7099603;27;20269;-85
2022/12/19 12:00:16;;;;;;;19.40;12.67;;;;;;;10.83;47.17;99373.63;7100851;27;20225;-85
2022/12/19 12:04:02;;;;;;;16.20;11.67;;;;;;;11.10;47.34;99455.66;7095584;27;20544;-84
2022/12/19 12:07:25;;;;;;;19.13;11.30;;;;;;;10.75;47.22;99348.66;7115206;27;20208;-84
2022/12/19 12:10:57;;;;;;;15.83;11.57;;;;;;;11.23;47.61;99437.72;7122671;27;20218;-83
2022/12/19 12:14:24;;;;;;;16.53;11.17;;;;;;;11.57;46.67;99445.09;7118784;27;20200;-86
2022/12/19 12:17:52;;;;;;;17.03;11.20;;;;;;;11.86;46.17;99444.91;7128572;27;20322;-86
2022/12/19 12:21:22;;;;;;;16.87;11.70;;;;;;;10.98;47.50;99398.66;7123807;27;20582;-88
2022/12/19 12:24:58;;;;;;;20.47;13.77;;;;;;;11.23;46.19;99345.94;7130843;27;20202;-87
2022/12/19 12:28:53;;;;;;;21.60;14.00;;;;;;;11.73;46.27;99420.50;7130132;27;20224;-85
2022/12/19 12:32:26;;;;;;;23.13;13.13;;;;;;;11.60;46.45;99431.22;7117566;27;20198;-86
2022/12/19 12:35:51;;;;;;;20.93;13.40;;;;;;;12.33;45.32;99429.56;7118906;27;20340;-83
2022/12/19 12:39:19;;;;;;;21.80;13.60;;;;;;;12.44;45.48;99430.88;7114428;27;20227;-84
2022/12/19 12:42:48;;;;;;;20.37;12.53;;;;;;;12.70;44.88;99425.56;7116882;27;20672;-85
2022/12/19 12:46:15;;;;;;;17.80;12.07;;;;;;;12.58;45.81;99427.19;7123840;27;20249;-88
2022/12/19 12:49:40;;;;;;;20.40;11.47;;;;;;;12.24;45.64;99376.72;7127431;27;20233;-84
2022/12/19 12:53:07;;;;;;;15.00;10.50;;;;;;;11.84;46.38;99398.31;7128606;27;20286;-86
2022/12/19 12:56:28;;;;;;;18.83;12.90;;;;;;;10.69;49.94;99414.97;7118050;27;20218;-84
2022/12/19 13:00:16;;;;;;;18.93;12.93;;;;;;;10.59;50.05;99387.50;7115436;27;20302;-84
2022/12/19 13:03:40;;;;;;;17.10;12.23;;;;;;;11.23;48.98;99402.63;7121355;27;20269;-85
2022/12/19 13:07:12;;;;;;;23.57;12.93;;;;;;;11.29;47.92;99336.25;7120683;27;20310;-84
2022/12/19 13:10:35;;;;;;;18.53;12.10;;;;;;;10.80;49.81;99400.97;7127949;27;20225;-88
2022/12/19 13:13:57;;;;;;;20.07;14.07;;;;;;;10.93;48.98;99411.06;7113981;27;20217;-83
2022/12/19 13:17:25;;;;;;;19.23;12.67;;;;;;;9.59;51.99;99346.19;7102431;27;20230;-84
2022/12/19 13:20:47;;;;;;;20.70;12.57;;;;;;;10.47;50.79;99399.81;7118180;27;20701;-85
2022/12/19 13:24:16;;;;;;;23.17;14.23;;;;;;;10.45;50.47;99409.91;7124766;27;20274;-86
2022/12/19 13:27:40;;;;;;;22.00;13.53;;;;;;;10.85;49.77;99405.78;7097539;27;20211;-83
2022/12/19 13:31:16;;;;;;;20.33;13.27;;;;;;;11.13;49.41;99377.84;7126848;27;20218;-85
2022/12/19 13:34:39;;;;;;;23.77;14.53;;;;;;;11.15;49.03;99405.47;7131566;27;20222;-86
2022/12/19 13:38:17;;;;;;;22.80;13.93;;;;;;;10.58;51.24;99411.94;7133906;27;20215;-86
2022/12/19 13:45:25;;;;;;;22.33;14.07;;;;;;;11.59;49.25;99405.22;7101318;27;20210;-85
2022/12/19 13:49:12;;;;;;;21.70;13.80;;;;;;;11.69;47.66;99390.34;7117677;27;20219;-85
2022/12/19 13:52:36;;;;;;;19.53;12.63;;;;;;;11.73;47.77;99417.78;7128941;27;20198;-87
2022/12/19 13:56:01;;;;;;;19.83;12.80;;;;;;;11.54;47.63;99359.88;7128390;27;20219;-86
2022/12/19 13:59:25;;;;;;;19.60;13.43;;;;;;;11.63;47.95;99409.22;7130114;27;20226;-85
2022/12/19 14:03:03;;;;;;;23.33;14.83;;;;;;;11.76;47.95;99415.53;7133891;27;20236;-85
2022/12/19 14:06:38;;;;;;;20.77;12.87;;;;;;;11.88;47.51;99418.53;7106208;27;20265;-85
2022/12/19 14:10:01;;;;;;;25.07;13.80;;;;;;;11.87;47.82;99412.28;7115256;27;20222;-85
2022/12/19 14:17:06;;;;;;;25.30;17.13;;;;;;;11.42;47.76;99368.72;7130621;27;20217;-85
2022/12/19 14:20:30;;;;;;;27.30;17.07;;;;;;;11.44;48.52;99394.50;7131851;27;20228;-85
2022/12/19 14:23:57;;;;;;;31.50;18.30;;;;;;;11.60;48.46;99390.69;7131186;27;20221;-85
2022/12/19 14:27:24;;;;;;;32.30;21.20;;;;;;;11.52;48.66;99428.63;7098576;27;20205;-85
2022/12/19 14:30:49;;;;;;;29.70;20.00;;;;;;;10.93;49.86;99343.63;7102380;27;20304;-85
2022/12/19 14:34:18;;;;;;;32.07;20.43;;;;;;;10.91;49.64;99359.16;7103778;27;20201;-85
2022/12/19 14:37:43;;;;;;;30.33;19.37;;;;;;;11.44;49.28;99423.34;7103235;27;20228;-88
2022/12/19 14:43:37;;;;;;;21.97;16.20;;;;;;;11.28;49.83;99440.66;7106791;27;20224;-85
2022/12/19 14:44:53;;;;;;;26.50;16.57;;;;;;;11.07;50.46;99432.59;7103554;27;20206;-85
2022/12/19 14:48:29;;;;;;;22.13;15.50;;;;;;;10.97;49.92;99388.91;7102279;27;20209;-86
2022/12/19 14:51:52;;;;;;;29.30;19.17;;;;;;;11.28;49.79;99447.94;7104317;27;20259;-85
2022/12/19 14:55:27;;;;;;;26.77;18.27;;;;;;;11.18;49.86;99444.72;7111844;27;20220;-85
2022/12/19 14:59:02;;;;;;;22.87;14.60;;;;;;;10.59;50.55;99384.78;7127162;27;20257;-84
2022/12/19 15:06:27;;;;;;;25.20;16.97;;;;;;;11.02;51.51;99429.63;7123911;27;20793;-84
2022/12/19 15:09:55;;;;;;;22.27;14.50;;;;;;;10.89;51.14;99437.59;7130744;27;20229;-84
2022/12/19 15:13:24;;;;;;;21.83;14.83;;;;;;;10.59;52.38;99448.66;7131588;27;20200;-84
2022/12/19 15:16:47;;;;;;;19.87;14.00;;;;;;;10.75;51.51;99429.56;7120186;27;20225;-87
2022/12/19 15:20:10;;;;;;;22.63;14.87;;;;;;;10.14;51.61;99368.91;7124382;27;20584;-85
2022/12/19 15:23:32;;;;;;;19.50;13.30;;;;;;;9.92;53.69;99429.09;7122130;27;20206;-85
2022/12/19 15:26:54;;;;;;;21.10;14.23;;;;;;;10.14;52.87;99417.41;7123840;27;20663;-85
2022/12/19 15:30:18;;;;;;;25.70;17.23;;;;;;;9.62;53.45;99394.28;7128708;27;20236;-85
2022/12/19 15:33:40;;;;;;;24.13;15.93;;;;;;;9.84;52.68;99426.50;7127800;27;20201;-86
2022/12/19 15:45:46;;;;;;;26.20;14.87;;;;;;;9.65;54.47;99434.28;7063406;27;20229;-85
2022/12/19 16:11:48;;;;;;;27.00;16.37;;;;;;;9.28;55.20;99415.47;6762967;28;20997;-84
2022/12/19 17:04:01;;;;;;;24.77;16.20;;;;;;;8.33;56.39;99400.88;6847719;28;20235;-84
2022/12/19 17:16:56;;;;;;;27.50;18.27;;;;;;;8.05;56.46;99397.81;6806248;28;20206;-86
2022/12/19 17:21:01;;;;;;;35.40;22.00;;;;;;;7.70;57.42;99387.53;6977158;28;20320;-87
2022/12/19 17:25:04;;;;;;;;;;;;;;;;;;;;;
2022/12/19 17:28:26;;;;;;;28.50;17.77;;;;;;;7.86;57.88;99370.53;7037558;28;20279;-83
2022/12/19 17:31:48;;;;;;;28.43;18.23;;;;;;;7.55;58.03;99358.91;7044247;28;20216;-86
2022/12/19 17:35:15;;;;;;;30.23;19.17;;;;;;;7.41;57.86;99395.34;7044010;28;21143;-85
2022/12/19 17:38:38;;;;;;;29.60;19.07;;;;;;;7.58;58.37;99391.59;7045321;28;20225;-86
2022/12/19 17:42:02;;;;;;;31.47;19.77;;;;;;;7.54;58.89;99395.63;7042820;28;20214;-86